Atlanta, Nebraska
Current Conditions -  °F | °C
As of 10:15 AM on Thursday 29 Jan 2015 (Local Time) from KHDE Reporting Station
Overcast Overcast  
Wind Chill: 28°   Ceiling: 3000
Heat Index: 38°   Visibility: 10mi
Dew Point: 24°   Wind: 18mph
Humidity: 58%   Direction: 360°N
Pressure: 30.45"   Gusts: 24mph
Location:  40.37°N, 99.47°W
Report Text: KHDE 291615Z AUTO 36016G21KT 10SM OVC030 03/M04 A3045 RMK AO2 T00331043
Loading
Personal Weather Stations






























Interactive Weather Map New forecast layout! Learn more

10-Day Weather Forecast

Advertisements
Track Severe Weather on mobile